TimeAST,TemperatureF,Dew PointF,Humidity,Sea Level PressureIn,VisibilityMPH,Wind Direction,Wind SpeedMPH,Gust SpeedMPH,PrecipitationIn,Events,Conditions,WindDirDegrees,DateUTC
12:00 AM,78.8,73.4,83,29.95,-9999.0,East,10.4,-,N/A,,Unknown,80,2013-04-23 04:00:00
1:00 AM,78.8,73.4,83,29.92,-9999.0,East,9.2,-,N/A,,Unknown,80,2013-04-23 05:00:00
2:00 AM,78,73,82,,,East,10.4,,,,Clear,90,2013-04-23 06:00:00
2:00 AM,78.8,73.4,83,29.92,-9999.0,East,10.4,-,N/A,,Unknown,90,2013-04-23 06:00:00
3:00 AM,78.8,73.4,83,29.89,-9999.0,ESE,10.4,-,N/A,,Unknown,110,2013-04-23 07:00:00
4:00 AM,77.0,73.4,89,29.89,-9999.0,ESE,8.1,-,N/A,,Unknown,120,2013-04-23 08:00:00
5:00 AM,78,73,81,,,ESE,5.8,,,,Clear,110,2013-04-23 09:00:00
5:00 AM,78.8,73.4,83,29.89,-9999.0,ESE,5.8,-,N/A,,Unknown,110,2013-04-23 09:00:00
6:00 AM,78.8,73.4,83,29.89,-9999.0,SE,4.6,-,N/A,,Unknown,130,2013-04-23 10:00:00
7:00 AM,78.8,75.2,89,29.92,-9999.0,ESE,6.9,-,N/A,,Unknown,110,2013-04-23 11:00:00
8:00 AM,80,75,79,,,ESE,9.2,,,,Clear,120,2013-04-23 12:00:00
8:00 AM,80.6,75.2,84,29.92,-9999.0,ESE,9.2,-,N/A,,Unknown,120,2013-04-23 12:00:00
9:00 AM,82.4,73.4,74,29.95,-9999.0,ESE,11.5,-,N/A,,Unknown,110,2013-04-23 13:00:00
10:00 AM,84.2,73.4,70,29.95,-9999.0,ESE,16.1,-,N/A,,Unknown,110,2013-04-23 14:00:00
11:00 AM,82,75,74,,,ESE,10.4,,,,Clear,120,2013-04-23 15:00:00
11:00 AM,82.4,75.2,79,29.95,-9999.0,ESE,10.4,-,N/A,,Unknown,120,2013-04-23 15:00:00
12:00 PM,84.2,75.2,74,29.95,-9999.0,ESE,15.0,-,N/A,,Unknown,120,2013-04-23 16:00:00
2:00 PM,86.0,75.2,70,29.89,-9999.0,SE,12.7,-,N/A,,Unknown,130,2013-04-23 18:00:00
4:00 PM,86.0,73.4,66,29.86,-9999.0,Variable,12.7,-,N/A,,Unknown,0,2013-04-23 20:00:00
5:00 PM,86.0,75.2,70,29.83,-9999.0,ENE,9.2,-,N/A,,Unknown,60,2013-04-23 21:00:00